Time;durP1;ratioP1;P1;durP2;ratioP2;P2;SDS_P1;SDS_P2;PMS_P1;PMS_P2;Temp;Humidity;BMP_temperature;BMP_pressure;BME280_temperature;BME280_humidity;BME280_pressure;Samples;Min_cycle;Max_cycle;Signal;HPM_P1;HPM_P2
2022/07/20 00:01:31;;;;;;;17.57;12.70;;;;;;;;;;4974687;28;20746;-66
2022/07/20 00:03:58;;;;;;;20.83;12.63;;;;;;;;;;5001263;28;20223;-66
2022/07/20 00:06:25;;;;;;;19.00;12.87;;;;;;;;;;5002738;28;20763;-66
2022/07/20 00:11:37;;;;;;;19.27;12.10;;;;;;;;;;4973843;28;20254;-66
2022/07/20 00:14:04;;;;;;;21.63;12.07;;;;;;;;;;5003164;28;20235;-66
2022/07/20 00:16:31;;;;;;;16.73;9.80;;;;;;;;;;5001120;28;20309;-67
2022/07/20 00:18:58;;;;;;;15.80;10.10;;;;;;;;;;5003041;28;20231;-66
2022/07/20 00:21:25;;;;;;;15.07;10.10;;;;;;;;;;5000390;28;20322;-66
2022/07/20 00:23:54;;;;;;;14.00;10.27;;;;;;;;;;5002130;28;20251;-67
2022/07/20 00:26:21;;;;;;;17.83;10.40;;;;;;;;;;5001111;28;20249;-66
2022/07/20 00:28:50;;;;;;;16.00;9.60;;;;;;;;;;5003109;28;20227;-66
2022/07/20 00:31:18;;;;;;;13.70;9.17;;;;;;;;;;5000771;28;20310;-66
2022/07/20 00:33:48;;;;;;;16.03;9.03;;;;;;;;;;5002733;28;20239;-66
2022/07/20 00:36:15;;;;;;;17.73;9.20;;;;;;;;;;4996353;28;20334;-66
2022/07/20 00:38:42;;;;;;;16.50;9.33;;;;;;;;;;5003054;28;20357;-66
2022/07/20 00:41:09;;;;;;;18.87;9.37;;;;;;;;;;4999890;28;20788;-66
2022/07/20 00:43:54;;;;;;;14.23;9.50;;;;;;;;;;4999186;28;20316;-66
2022/07/20 00:46:21;;;;;;;15.40;10.17;;;;;;;;;;4999897;28;20233;-66
2022/07/20 00:48:48;;;;;;;14.17;9.20;;;;;;;;;;4949496;28;20339;-66
2022/07/20 00:51:15;;;;;;;15.37;10.17;;;;;;;;;;4968011;28;20298;-69
2022/07/20 00:53:42;;;;;;;14.30;8.47;;;;;;;;;;4996889;28;20238;-66
2022/07/20 00:56:09;;;;;;;13.33;8.10;;;;;;;;;;5000164;28;20219;-67
2022/07/20 00:58:53;;;;;;;15.03;9.40;;;;;;;;;;4985375;28;20663;-66
2022/07/20 01:01:20;;;;;;;16.33;9.60;;;;;;;;;;5000113;28;20318;-69
2022/07/20 01:03:47;;;;;;;15.30;10.50;;;;;;;;;;5001872;28;20249;-66
2022/07/20 01:06:14;;;;;;;17.27;10.30;;;;;;;;;;4985856;28;20227;-67
2022/07/20 01:08:41;;;;;;;14.50;10.27;;;;;;;;;;5002168;28;20226;-66
2022/07/20 01:11:08;;;;;;;19.07;11.10;;;;;;;;;;5000074;28;20227;-65
2022/07/20 01:13:34;;;;;;;13.93;10.07;;;;;;;;;;5002290;28;20326;-66
2022/07/20 01:16:01;;;;;;;15.30;10.60;;;;;;;;;;4999461;28;20737;-66
2022/07/20 01:18:28;;;;;;;17.43;10.60;;;;;;;;;;5002082;28;20305;-66
2022/07/20 01:20:56;;;;;;;13.47;10.03;;;;;;;;;;4999112;28;20227;-66
2022/07/20 01:23:23;;;;;;;15.63;9.80;;;;;;;;;;4982610;28;21031;-67
2022/07/20 01:25:50;;;;;;;15.13;10.17;;;;;;;;;;5002087;28;20237;-66
2022/07/20 01:28:17;;;;;;;17.77;9.23;;;;;;;;;;4999298;28;20679;-66
2022/07/20 01:30:43;;;;;;;17.17;10.73;;;;;;;;;;5001471;28;20358;-66
2022/07/20 01:33:10;;;;;;;15.77;10.20;;;;;;;;;;4999108;28;20227;-66
2022/07/20 01:35:37;;;;;;;16.90;11.23;;;;;;;;;;4996588;28;20273;-66
2022/07/20 01:38:04;;;;;;;19.53;8.93;;;;;;;;;;4976637;28;20235;-66
2022/07/20 01:40:31;;;;;;;16.73;11.20;;;;;;;;;;4973989;28;20752;-66
2022/07/20 01:42:58;;;;;;;15.43;10.37;;;;;;;;;;5000146;28;20226;-66
2022/07/20 01:45:25;;;;;;;19.20;12.23;;;;;;;;;;5001488;28;20254;-66
2022/07/20 01:47:51;;;;;;;21.43;13.10;;;;;;;;;;4965495;28;20239;-66
2022/07/20 01:50:19;;;;;;;21.27;12.37;;;;;;;;;;4941055;28;20705;-66
2022/07/20 01:52:46;;;;;;;19.67;12.70;;;;;;;;;;4998073;28;20223;-66
2022/07/20 01:55:12;;;;;;;18.20;11.47;;;;;;;;;;5000774;28;20267;-66
2022/07/20 01:57:39;;;;;;;20.87;12.07;;;;;;;;;;4956545;28;20231;-66
2022/07/20 02:00:07;;;;;;;18.93;10.97;;;;;;;;;;4996173;28;20667;-66
2022/07/20 02:02:37;;;;;;;18.07;10.80;;;;;;;;;;4998679;28;20297;-66
2022/07/20 02:05:05;;;;;;;19.47;11.60;;;;;;;;;;5000827;28;20238;-66
2022/07/20 02:07:32;;;;;;;18.43;11.10;;;;;;;;;;4992957;28;20236;-67
2022/07/20 02:09:59;;;;;;;21.87;11.70;;;;;;;;;;4984508;28;20261;-67
2022/07/20 02:12:26;;;;;;;20.10;11.97;;;;;;;;;;4986632;28;20224;-66
2022/07/20 02:14:53;;;;;;;19.87;11.57;;;;;;;;;;4997875;28;20338;-67
2022/07/20 02:17:19;;;;;;;19.90;11.30;;;;;;;;;;4984774;28;20320;-67
2022/07/20 02:19:46;;;;;;;18.50;12.20;;;;;;;;;;4999742;28;20226;-66
2022/07/20 02:22:13;;;;;;;22.20;12.80;;;;;;;;;;4997713;28;20383;-67
2022/07/20 02:24:40;;;;;;;20.57;11.80;;;;;;;;;;4995345;28;20314;-66
2022/07/20 02:27:07;;;;;;;18.83;11.87;;;;;;;;;;4990559;28;20235;-67
2022/07/20 02:29:34;;;;;;;18.67;11.57;;;;;;;;;;5001371;28;20342;-67
2022/07/20 02:32:18;;;;;;;20.00;11.73;;;;;;;;;;5001074;28;20670;-67
2022/07/20 02:34:46;;;;;;;18.70;11.83;;;;;;;;;;4974556;28;20328;-67
2022/07/20 02:37:30;;;;;;;19.37;11.33;;;;;;;;;;5003277;28;20640;-67
2022/07/20 02:39:57;;;;;;;18.90;11.77;;;;;;;;;;4998000;28;20231;-67
2022/07/20 02:42:24;;;;;;;16.70;10.67;;;;;;;;;;4984422;28;20314;-66
2022/07/20 02:44:51;;;;;;;17.90;10.80;;;;;;;;;;4995562;28;20237;-67
2022/07/20 02:47:18;;;;;;;17.27;11.23;;;;;;;;;;5004911;28;20261;-66
2022/07/20 02:49:45;;;;;;;17.53;11.27;;;;;;;;;;5000754;28;20231;-67
2022/07/20 02:52:12;;;;;;;18.90;11.03;;;;;;;;;;4969523;28;20235;-66
2022/07/20 02:54:39;;;;;;;17.20;10.33;;;;;;;;;;4990504;28;20242;-66
2022/07/20 02:57:06;;;;;;;15.43;10.87;;;;;;;;;;5004703;28;20766;-66
2022/07/20 02:59:33;;;;;;;17.43;10.93;;;;;;;;;;5002936;28;20636;-67
2022/07/20 03:01:59;;;;;;;15.87;10.97;;;;;;;;;;5003603;28;20227;-66
2022/07/20 03:04:26;;;;;;;18.23;10.67;;;;;;;;;;5002244;28;20235;-67
2022/07/20 03:06:53;;;;;;;16.93;11.00;;;;;;;;;;5003972;28;20638;-67
2022/07/20 03:09:20;;;;;;;17.23;11.37;;;;;;;;;;5002216;28;20321;-66
2022/07/20 03:11:46;;;;;;;15.50;10.50;;;;;;;;;;5001167;28;20227;-66
2022/07/20 03:14:13;;;;;;;14.50;10.13;;;;;;;;;;5000815;28;20694;-66
2022/07/20 03:16:40;;;;;;;13.60;10.23;;;;;;;;;;4971803;28;20242;-66
2022/07/20 03:19:07;;;;;;;13.17;10.00;;;;;;;;;;4984535;28;20654;-68
2022/07/20 03:21:39;;;;;;;15.47;10.63;;;;;;;;;;4985376;28;20239;-69
2022/07/20 03:24:05;;;;;;;14.30;9.57;;;;;;;;;;4965324;28;20231;-66
2022/07/20 03:26:32;;;;;;;17.27;10.03;;;;;;;;;;4984182;28;20235;-66
2022/07/20 03:28:59;;;;;;;14.97;10.37;;;;;;;;;;4996819;28;20234;-64
2022/07/20 03:31:26;;;;;;;19.17;11.23;;;;;;;;;;4992644;28;20232;-66
2022/07/20 03:33:52;;;;;;;18.00;10.07;;;;;;;;;;4967886;28;20232;-65
2022/07/20 03:36:19;;;;;;;32.37;11.97;;;;;;;;;;4983925;28;20227;-66
2022/07/20 03:38:46;;;;;;;23.97;10.93;;;;;;;;;;5003240;28;20231;-66
2022/07/20 03:41:13;;;;;;;20.37;10.77;;;;;;;;;;5002124;28;20242;-66
2022/07/20 03:43:39;;;;;;;17.13;10.27;;;;;;;;;;5002728;28;20287;-66
2022/07/20 03:46:06;;;;;;;22.63;10.97;;;;;;;;;;4943108;28;20708;-66
2022/07/20 03:48:35;;;;;;;17.07;9.77;;;;;;;;;;4976253;28;20219;-66
2022/07/20 03:51:02;;;;;;;19.17;10.00;;;;;;;;;;5001511;28;20227;-66
2022/07/20 03:53:29;;;;;;;15.43;9.50;;;;;;;;;;4996135;28;20790;-66
2022/07/20 03:55:56;;;;;;;15.80;8.63;;;;;;;;;;4973743;28;20223;-67
2022/07/20 03:58:23;;;;;;;18.73;9.97;;;;;;;;;;4986607;28;20578;-64
2022/07/20 04:00:50;;;;;;;17.47;10.80;;;;;;;;;;4991471;28;21279;-65
2022/07/20 04:03:17;;;;;;;16.33;10.53;;;;;;;;;;4988245;28;20241;-65
2022/07/20 04:05:44;;;;;;;17.97;10.07;;;;;;;;;;4983647;28;20611;-66
2022/07/20 04:08:10;;;;;;;20.10;9.53;;;;;;;;;;4935928;28;20315;-66
2022/07/20 04:10:37;;;;;;;16.70;10.43;;;;;;;;;;4992194;28;21480;-66
2022/07/20 04:13:04;;;;;;;17.97;10.13;;;;;;;;;;4987276;28;20553;-65
2022/07/20 04:15:48;;;;;;;20.13;9.33;;;;;;;;;;4989084;28;20749;-65
2022/07/20 04:18:16;;;;;;;14.17;9.57;;;;;;;;;;4981908;28;20321;-66
2022/07/20 04:21:00;;;;;;;16.77;9.50;;;;;;;;;;4984416;28;20235;-66
2022/07/20 04:23:27;;;;;;;15.93;9.77;;;;;;;;;;4980013;28;21017;-65
2022/07/20 04:26:12;;;;;;;23.07;9.97;;;;;;;;;;4962261;28;20293;-64
2022/07/20 04:28:38;;;;;;;18.13;10.60;;;;;;;;;;4993080;28;20235;-66
2022/07/20 04:31:05;;;;;;;16.87;10.10;;;;;;;;;;4995229;28;20241;-64
2022/07/20 04:33:32;;;;;;;18.50;10.50;;;;;;;;;;4984760;28;20591;-65
2022/07/20 04:35:59;;;;;;;17.70;10.93;;;;;;;;;;4986407;28;20238;-65
2022/07/20 04:38:26;;;;;;;22.90;10.60;;;;;;;;;;4981051;28;20298;-69
2022/07/20 04:40:53;;;;;;;20.33;11.53;;;;;;;;;;4992513;28;20690;-66
2022/07/20 04:43:20;;;;;;;16.63;10.93;;;;;;;;;;4986644;28;20236;-66
2022/07/20 04:45:46;;;;;;;18.33;11.40;;;;;;;;;;4988389;28;20243;-65
2022/07/20 04:48:20;;;;;;;14.90;10.93;;;;;;;;;;4963928;28;20236;-66
2022/07/20 04:50:47;;;;;;;17.73;11.43;;;;;;;;;;4981896;28;20274;-66
2022/07/20 04:53:14;;;;;;;18.53;11.77;;;;;;;;;;4986926;28;20243;-67
2022/07/20 04:55:41;;;;;;;16.10;10.13;;;;;;;;;;4961795;28;20230;-69
2022/07/20 04:58:08;;;;;;;14.13;11.17;;;;;;;;;;4979116;28;20281;-68
2022/07/20 05:00:35;;;;;;;14.73;10.37;;;;;;;;;;4990021;28;20246;-68
2022/07/20 05:03:02;;;;;;;18.37;10.30;;;;;;;;;;4983995;28;27335;-68
2022/07/20 05:05:48;;;;;;;18.03;10.87;;;;;;;;;;4981785;28;20736;-69
2022/07/20 05:08:14;;;;;;;14.63;10.60;;;;;;;;;;4811259;28;5096452;-68
2022/07/20 05:10:41;;;;;;;16.47;10.07;;;;;;;;;;4987001;28;20227;-67
2022/07/20 05:13:08;;;;;;;16.47;10.13;;;;;;;;;;4980839;28;20247;-66
2022/07/20 05:15:35;;;;;;;13.20;9.63;;;;;;;;;;4982338;28;21037;-65
2022/07/20 05:18:02;;;;;;;14.63;10.13;;;;;;;;;;4792426;28;5093274;-66
2022/07/20 05:20:29;;;;;;;14.83;10.00;;;;;;;;;;4993404;28;20229;-66
2022/07/20 05:22:56;;;;;;;13.40;9.67;;;;;;;;;;4959631;28;20699;-66
2022/07/20 05:25:23;;;;;;;13.43;9.17;;;;;;;;;;4985020;28;20234;-66
2022/07/20 05:27:55;;;;;;;16.40;9.20;;;;;;;;;;4978987;28;20993;-67
2022/07/20 05:30:21;;;;;;;18.17;8.87;;;;;;;;;;4957242;28;20264;-66
2022/07/20 05:32:48;;;;;;;15.63;8.57;;;;;;;;;;4957458;28;20691;-68
2022/07/20 05:35:15;;;;;;;18.37;8.97;;;;;;;;;;4983444;28;26938;-67
2022/07/20 05:37:42;;;;;;;17.13;8.57;;;;;;;;;;4982091;28;20235;-67
2022/07/20 05:40:09;;;;;;;13.70;8.13;;;;;;;;;;4956163;28;20242;-66
2022/07/20 05:42:36;;;;;;;16.83;7.97;;;;;;;;;;4984272;28;20252;-67
2022/07/20 05:45:03;;;;;;;15.10;7.50;;;;;;;;;;4811688;28;5096151;-65
2022/07/20 05:47:30;;;;;;;12.67;7.13;;;;;;;;;;4955603;28;20270;-66
2022/07/20 05:49:57;;;;;;;18.57;7.50;;;;;;;;;;4960928;28;20227;-68
2022/07/20 05:52:24;;;;;;;18.57;7.23;;;;;;;;;;4983140;28;20767;-66
2022/07/20 05:55:08;;;;;;;16.33;7.23;;;;;;;;;;4958769;28;20242;-66
2022/07/20 05:57:35;;;;;;;12.27;6.40;;;;;;;;;;4976901;28;20331;-66
2022/07/20 06:00:02;;;;;;;17.20;6.83;;;;;;;;;;4989088;28;20262;-66
2022/07/20 06:02:29;;;;;;;15.50;6.37;;;;;;;;;;4984292;28;20227;-67
2022/07/20 06:04:56;;;;;;;14.37;6.00;;;;;;;;;;4975351;28;20595;-67
2022/07/20 06:07:23;;;;;;;14.10;6.70;;;;;;;;;;4967738;28;20227;-67
2022/07/20 06:09:50;;;;;;;17.27;6.80;;;;;;;;;;4982418;28;22365;-67
2022/07/20 06:12:17;;;;;;;17.07;6.90;;;;;;;;;;4977162;28;27174;-67
2022/07/20 06:14:44;;;;;;;15.77;6.67;;;;;;;;;;4982340;28;20234;-67
2022/07/20 06:17:11;;;;;;;14.13;6.20;;;;;;;;;;4986815;28;20242;-65
2022/07/20 06:19:38;;;;;;;12.60;6.20;;;;;;;;;;4962930;28;20382;-69
2022/07/20 06:22:05;;;;;;;12.60;6.57;;;;;;;;;;4952557;28;22937;-68
2022/07/20 06:24:32;;;;;;;18.27;6.13;;;;;;;;;;4988736;28;20235;-65
2022/07/20 06:26:59;;;;;;;15.10;6.10;;;;;;;;;;4976712;28;20293;-67
2022/07/20 06:29:26;;;;;;;15.13;5.50;;;;;;;;;;4986446;28;20226;-67
2022/07/20 06:31:53;;;;;;;15.57;5.37;;;;;;;;;;4989541;28;20242;-67
2022/07/20 06:34:40;;;;;;;15.90;4.77;;;;;;;;;;4981613;28;22518;-68
2022/07/20 06:37:06;;;;;;;11.90;5.47;;;;;;;;;;4977321;28;20255;-68
2022/07/20 06:39:33;;;;;;;10.03;5.53;;;;;;;;;;4973950;28;20239;-67
2022/07/20 06:42:00;;;;;;;10.10;5.03;;;;;;;;;;4976500;28;20231;-63
2022/07/20 06:44:27;;;;;;;12.03;5.30;;;;;;;;;;4810835;28;5090916;-65
2022/07/20 06:46:54;;;;;;;12.23;5.47;;;;;;;;;;4779949;28;5089981;-66
2022/07/20 06:49:24;;;;;;;10.07;5.40;;;;;;;;;;4980919;28;20227;-67
2022/07/20 06:51:52;;;;;;;9.83;4.40;;;;;;;;;;4978092;28;20314;-67
2022/07/20 06:54:20;;;;;;;8.20;4.30;;;;;;;;;;4985175;28;20269;-65
2022/07/20 06:57:14;;;;;;;6.53;4.53;;;;;;;;;;4985707;28;20234;-68
2022/07/20 06:59:42;;;;;;;7.37;4.07;;;;;;;;;;4956784;28;20240;-67
2022/07/20 07:02:09;;;;;;;7.47;4.70;;;;;;;;;;4932844;28;20321;-69
2022/07/20 07:04:37;;;;;;;8.57;4.47;;;;;;;;;;4816030;28;5086664;-68
2022/07/20 07:07:04;;;;;;;7.47;4.60;;;;;;;;;;4953213;28;20286;-72
2022/07/20 07:09:31;;;;;;;7.10;4.53;;;;;;;;;;4944503;28;20229;-68
2022/07/20 07:11:58;;;;;;;8.83;4.67;;;;;;;;;;4965537;28;20234;-67
2022/07/20 07:14:25;;;;;;;8.27;4.30;;;;;;;;;;4961187;28;20243;-68
2022/07/20 07:16:53;;;;;;;9.73;4.97;;;;;;;;;;4961804;28;20241;-68
2022/07/20 07:19:20;;;;;;;7.87;4.90;;;;;;;;;;4984818;28;20587;-68
2022/07/20 07:21:47;;;;;;;14.37;5.23;;;;;;;;;;4985139;28;20238;-66
2022/07/20 07:24:14;;;;;;;12.37;4.40;;;;;;;;;;4984096;28;20249;-67
2022/07/20 07:26:41;;;;;;;13.57;4.73;;;;;;;;;;4988930;28;20823;-67
2022/07/20 07:29:08;;;;;;;7.63;4.47;;;;;;;;;;4969007;28;20230;-68
2022/07/20 07:31:35;;;;;;;8.50;4.50;;;;;;;;;;4988347;28;20227;-68
2022/07/20 07:34:02;;;;;;;7.73;4.33;;;;;;;;;;4986680;28;33584;-69
2022/07/20 07:36:29;;;;;;;10.77;3.87;;;;;;;;;;4991942;28;20323;-67
2022/07/20 07:38:56;;;;;;;7.97;4.10;;;;;;;;;;4965720;28;31159;-66
2022/07/20 07:41:23;;;;;;;7.03;3.80;;;;;;;;;;4982784;28;20283;-71
2022/07/20 07:43:50;;;;;;;5.73;4.07;;;;;;;;;;4989052;28;20259;-65
2022/07/20 07:46:17;;;;;;;5.23;3.70;;;;;;;;;;4963030;28;20350;-65
2022/07/20 07:48:44;;;;;;;9.07;4.07;;;;;;;;;;4981700;28;20241;-71
2022/07/20 07:51:12;;;;;;;6.63;4.53;;;;;;;;;;4974671;28;20246;-67
2022/07/20 07:53:41;;;;;;;8.33;4.33;;;;;;;;;;4960824;28;20240;-66
2022/07/20 07:56:08;;;;;;;9.47;4.47;;;;;;;;;;4991463;28;20219;-68
2022/07/20 07:58:52;;;;;;;5.17;3.70;;;;;;;;;;4986494;28;20222;-68
2022/07/20 08:01:39;;;;;;;4.20;3.10;;;;;;;;;;4990677;28;20708;-71
2022/07/20 08:04:07;;;;;;;4.37;3.07;;;;;;;;;;4994719;28;20233;-67
2022/07/20 08:06:34;;;;;;;4.30;2.50;;;;;;;;;;4989863;28;20228;-69
2022/07/20 08:09:01;;;;;;;4.83;2.90;;;;;;;;;;4993079;28;20324;-69
2022/07/20 08:11:29;;;;;;;4.47;2.97;;;;;;;;;;4938003;28;20223;-68
2022/07/20 08:13:56;;;;;;;5.93;3.53;;;;;;;;;;4990480;28;20233;-68
2022/07/20 08:16:24;;;;;;;6.57;3.60;;;;;;;;;;4982713;28;20698;-66
2022/07/20 08:18:51;;;;;;;4.43;3.07;;;;;;;;;;4985620;28;20707;-66
2022/07/20 08:21:19;;;;;;;6.73;3.40;;;;;;;;;;4985512;28;20306;-66
2022/07/20 08:23:46;;;;;;;7.37;3.50;;;;;;;;;;4984392;28;20241;-66
2022/07/20 08:26:13;;;;;;;3.83;3.20;;;;;;;;;;4988187;28;20231;-66
2022/07/20 08:28:40;;;;;;;4.97;3.10;;;;;;;;;;4984678;28;20727;-66
2022/07/20 08:31:07;;;;;;;4.00;3.30;;;;;;;;;;4984542;28;20598;-66
2022/07/20 08:33:34;;;;;;;6.97;3.80;;;;;;;;;;4989038;28;20238;-68
2022/07/20 08:36:01;;;;;;;5.93;3.53;;;;;;;;;;4993590;28;20401;-66
2022/07/20 08:38:29;;;;;;;8.57;3.70;;;;;;;;;;4988001;28;27636;-67
2022/07/20 08:40:56;;;;;;;7.30;4.00;;;;;;;;;;4984191;28;23705;-68
2022/07/20 08:43:24;;;;;;;5.77;3.50;;;;;;;;;;4959976;28;20231;-69
2022/07/20 08:45:51;;;;;;;4.77;3.20;;;;;;;;;;4987761;28;20234;-68
2022/07/20 08:48:18;;;;;;;6.00;3.60;;;;;;;;;;4967651;28;20239;-67
2022/07/20 08:50:46;;;;;;;6.90;3.67;;;;;;;;;;4986081;28;20350;-66
2022/07/20 08:53:13;;;;;;;6.17;3.60;;;;;;;;;;4981584;28;20312;-67
2022/07/20 08:55:40;;;;;;;5.47;3.70;;;;;;;;;;4986246;28;20226;-66
2022/07/20 08:58:08;;;;;;;4.80;3.40;;;;;;;;;;4986859;28;20270;-66
2022/07/20 09:00:35;;;;;;;7.57;3.83;;;;;;;;;;4958948;28;20288;-69
2022/07/20 09:03:19;;;;;;;5.93;3.30;;;;;;;;;;4972582;28;20223;-68
2022/07/20 09:05:46;;;;;;;5.63;3.30;;;;;;;;;;4990432;28;20758;-68
2022/07/20 09:08:14;;;;;;;7.17;3.67;;;;;;;;;;4973824;28;20255;-67
2022/07/20 09:10:42;;;;;;;6.43;3.77;;;;;;;;;;4986799;28;20219;-68
2022/07/20 09:13:13;;;;;;;6.97;3.47;;;;;;;;;;4982242;28;20642;-68
2022/07/20 09:15:48;;;;;;;7.03;3.70;;;;;;;;;;4986787;28;20274;-68
2022/07/20 09:18:18;;;;;;;5.77;3.50;;;;;;;;;;4984488;28;20238;-69
2022/07/20 09:20:49;;;;;;;5.63;3.40;;;;;;;;;;4984567;28;20242;-67
2022/07/20 09:23:17;;;;;;;6.50;3.20;;;;;;;;;;4957491;28;20253;-65
2022/07/20 09:25:51;;;;;;;3.97;3.00;;;;;;;;;;4986213;28;20378;-66
2022/07/20 09:28:18;;;;;;;4.13;3.33;;;;;;;;;;4984613;28;20428;-65
2022/07/20 09:30:52;;;;;;;5.67;3.50;;;;;;;;;;4961190;28;20295;-65
2022/07/20 09:33:26;;;;;;;4.47;3.17;;;;;;;;;;4982126;28;20336;-65
2022/07/20 09:35:54;;;;;;;5.23;3.50;;;;;;;;;;4936725;28;20227;-66
2022/07/20 09:38:24;;;;;;;6.17;3.50;;;;;;;;;;4958944;28;20231;-65
2022/07/20 09:40:53;;;;;;;17.20;15.83;;;;;;;;;;4971939;28;20215;-66
2022/07/20 09:43:25;;;;;;;6.73;4.03;;;;;;;;;;4984760;28;20686;-66
2022/07/20 09:45:54;;;;;;;9.88;3.72;;;;;;;;;;4788139;28;5092278;-80
2022/07/20 09:48:24;;;;;;;5.50;3.87;;;;;;;;;;4751790;28;5088387;-72
2022/07/20 09:50:51;;;;;;;5.67;3.60;;;;;;;;;;4908192;28;20245;-70
2022/07/20 09:53:18;;;;;;;6.87;4.07;;;;;;;;;;4945666;28;217006;-71
2022/07/20 09:55:46;;;;;;;6.20;3.43;;;;;;;;;;4785476;28;4360439;-70
2022/07/20 09:58:13;;;;;;;7.40;3.70;;;;;;;;;;4953550;28;20242;-71
2022/07/20 10:00:40;;;;;;;4.40;3.60;;;;;;;;;;4957295;28;20278;-71
2022/07/20 10:03:13;;;;;;;5.03;3.60;;;;;;;;;;4951494;28;40640;-70
2022/07/20 10:05:40;;;;;;;4.17;3.33;;;;;;;;;;4963000;28;40746;-70
2022/07/20 10:08:07;;;;;;;4.40;3.23;;;;;;;;;;4936635;28;20234;-69
2022/07/20 10:10:34;;;;;;;7.10;3.30;;;;;;;;;;4973282;28;22687;-70
2022/07/20 10:13:20;;;;;;;5.20;3.50;;;;;;;;;;4789053;28;3884310;-70
2022/07/20 10:16:01;;;;;;;5.13;3.53;;;;;;;;;;4923790;28;20495;-74
2022/07/20 10:18:28;;;;;;;5.33;3.53;;;;;;;;;;4939875;28;20271;-71
2022/07/20 10:20:55;;;;;;;5.37;3.47;;;;;;;;;;4816651;28;3476447;-71
2022/07/20 10:23:22;;;;;;;5.77;3.50;;;;;;;;;;4966788;28;20259;-68
2022/07/20 10:25:49;;;;;;;4.33;3.30;;;;;;;;;;4946085;28;20241;-71
2022/07/20 10:28:34;;;;;;;5.93;3.70;;;;;;;;;;4927959;28;21607;-75
2022/07/20 10:31:04;;;;;;;8.57;3.70;;;;;;;;;;4963925;28;20960;-68
2022/07/20 10:33:50;;;;;;;7.80;3.70;;;;;;;;;;4841263;28;3102021;-72
2022/07/20 10:39:21;;;;;;;5.73;3.80;;;;;;;;;;4952728;28;20729;-71
2022/07/20 10:42:07;;;;;;;5.30;3.67;;;;;;;;;;4933345;28;20322;-75
2022/07/20 10:44:38;;;;;;;4.47;3.90;;;;;;;;;;4906585;28;674374;-71
2022/07/20 10:47:06;;;;;;;4.13;3.60;;;;;;;;;;4904141;28;213884;-70
2022/07/20 10:49:58;;;;;;;3.97;3.30;;;;;;;;;;4909029;28;214839;-69
2022/07/20 10:52:25;;;;;;;6.07;3.60;;;;;;;;;;4960479;28;20374;-68
2022/07/20 10:54:52;;;;;;;3.77;3.20;;;;;;;;;;4942604;28;20235;-73
2022/07/20 10:57:20;;;;;;;4.10;3.30;;;;;;;;;;4969298;28;20714;-70
2022/07/20 10:59:48;;;;;;;5.23;3.73;;;;;;;;;;4957889;28;20711;-73
2022/07/20 11:02:15;;;;;;;6.03;3.63;;;;;;;;;;4966926;28;20325;-70
2022/07/20 11:04:42;;;;;;;5.20;3.77;;;;;;;;;;4942160;28;20252;-70
2022/07/20 11:07:26;;;;;;;5.33;3.70;;;;;;;;;;4970031;28;20243;-65
2022/07/20 11:09:53;;;;;;;5.40;3.40;;;;;;;;;;4960817;28;20251;-68
2022/07/20 11:12:27;;;;;;;6.47;4.30;;;;;;;;;;4955922;28;20239;-68
2022/07/20 11:14:54;;;;;;;5.40;4.13;;;;;;;;;;4882127;28;218489;-69
2022/07/20 11:17:21;;;;;;;6.27;4.23;;;;;;;;;;4966082;28;29739;-70
2022/07/20 11:19:49;;;;;;;7.57;4.40;;;;;;;;;;4971333;28;20231;-70
2022/07/20 11:22:16;;;;;;;7.80;4.27;;;;;;;;;;4942544;28;20781;-74
2022/07/20 11:24:44;;;;;;;7.07;4.40;;;;;;;;;;4898114;28;27345;-71
2022/07/20 11:27:15;;;;;;;5.53;4.43;;;;;;;;;;4955217;28;49830;-69
2022/07/20 11:29:46;;;;;;;7.03;4.57;;;;;;;;;;4955941;28;20750;-68
2022/07/20 11:32:13;;;;;;;6.37;4.60;;;;;;;;;;4926012;28;21308;-70
2022/07/20 11:34:59;;;;;;;6.80;4.70;;;;;;;;;;4943186;28;20254;-68
2022/07/20 11:37:27;;;;;;;6.67;4.47;;;;;;;;;;4957206;28;20590;-66
2022/07/20 11:39:54;;;;;;;7.60;4.40;;;;;;;;;;4955335;28;20380;-67
2022/07/20 11:42:21;;;;;;;4.87;4.33;;;;;;;;;;4954466;28;220698;-70
2022/07/20 11:44:59;;;;;;;6.97;4.40;;;;;;;;;;4954978;28;20323;-69
2022/07/20 11:47:26;;;;;;;6.20;4.70;;;;;;;;;;4903469;28;20312;-69
2022/07/20 11:50:08;;;;;;;6.13;4.27;;;;;;;;;;4935892;28;20247;-67
2022/07/20 11:52:45;;;;;;;5.70;4.33;;;;;;;;;;4978727;28;20216;-69
2022/07/20 11:55:12;;;;;;;8.67;4.30;;;;;;;;;;4999318;28;20246;-69
2022/07/20 11:57:40;;;;;;;8.60;4.63;;;;;;;;;;4995620;28;20641;-68
2022/07/20 12:00:08;;;;;;;7.30;4.73;;;;;;;;;;5000882;28;20243;-71
2022/07/20 12:02:37;;;;;;;5.30;3.80;;;;;;;;;;5003279;28;20242;-68
2022/07/20 12:05:04;;;;;;;5.67;4.17;;;;;;;;;;4983422;28;20289;-70
2022/07/20 12:10:25;;;;;;;5.87;4.07;;;;;;;;;;4999755;28;20296;-69
2022/07/20 12:13:05;;;;;;;6.27;4.23;;;;;;;;;;5003059;28;20235;-69
2022/07/20 12:15:32;;;;;;;9.77;4.70;;;;;;;;;;5002858;28;20290;-69
2022/07/20 12:17:59;;;;;;;5.93;4.40;;;;;;;;;;5012264;28;20227;-69
2022/07/20 12:20:26;;;;;;;10.00;4.27;;;;;;;;;;5001567;28;21201;-69
2022/07/20 12:23:02;;;;;;;6.93;3.97;;;;;;;;;;4913916;28;25337;-69
2022/07/20 12:25:43;;;;;;;7.00;4.30;;;;;;;;;;4952310;28;33598;-69
2022/07/20 12:28:10;;;;;;;6.40;4.27;;;;;;;;;;4978346;28;20231;-70
2022/07/20 12:31:16;;;;;;;8.93;4.00;;;;;;;;;;4950165;28;20227;-67
2022/07/20 12:34:19;;;;;;;7.27;4.40;;;;;;;;;;4997058;28;20366;-68
2022/07/20 12:36:47;;;;;;;5.40;4.20;;;;;;;;;;4921548;29;20241;-67
2022/07/20 12:39:33;;;;;;;7.27;4.53;;;;;;;;;;4957391;28;20260;-67
2022/07/20 12:42:10;;;;;;;7.50;4.10;;;;;;;;;;4999331;28;20318;-67
2022/07/20 12:44:58;;;;;;;6.73;4.40;;;;;;;;;;4955543;28;20224;-67
2022/07/20 12:47:25;;;;;;;5.77;4.40;;;;;;;;;;4998450;28;20254;-67
2022/07/20 12:50:12;;;;;;;5.20;4.10;;;;;;;;;;5020429;28;20696;-67
2022/07/20 12:52:39;;;;;;;6.43;4.37;;;;;;;;;;5019530;28;20584;-67
2022/07/20 12:55:07;;;;;;;7.43;4.67;;;;;;;;;;5020145;28;20278;-70
2022/07/20 12:57:34;;;;;;;9.37;5.00;;;;;;;;;;5003624;28;20328;-67
2022/07/20 13:00:02;;;;;;;6.73;4.20;;;;;;;;;;5020225;28;20229;-68
2022/07/20 13:02:29;;;;;;;6.50;4.00;;;;;;;;;;5003911;28;20222;-66
2022/07/20 13:04:56;;;;;;;7.97;4.50;;;;;;;;;;5020157;28;20222;-67
2022/07/20 13:07:23;;;;;;;5.77;4.07;;;;;;;;;;5021892;28;20313;-66
2022/07/20 13:09:50;;;;;;;5.93;4.10;;;;;;;;;;5020083;28;20226;-67
2022/07/20 13:12:18;;;;;;;6.57;4.53;;;;;;;;;;5021370;28;20234;-67
2022/07/20 13:14:45;;;;;;;6.57;4.13;;;;;;;;;;5003515;28;20258;-67
2022/07/20 13:17:11;;;;;;;6.20;4.17;;;;;;;;;;4991454;28;20236;-67
2022/07/20 13:19:38;;;;;;;5.50;3.83;;;;;;;;;;4999639;28;20230;-67
2022/07/20 13:22:12;;;;;;;5.50;4.10;;;;;;;;;;4999071;28;20223;-67
2022/07/20 13:24:41;;;;;;;8.27;4.13;;;;;;;;;;4999628;28;20239;-67
2022/07/20 13:27:11;;;;;;;6.83;4.63;;;;;;;;;;5000211;28;30364;-67
2022/07/20 13:29:38;;;;;;;7.43;4.57;;;;;;;;;;4997592;28;20241;-67
2022/07/20 13:32:04;;;;;;;6.67;4.03;;;;;;;;;;4999819;28;20312;-67
2022/07/20 13:34:32;;;;;;;13.30;4.77;;;;;;;;;;4998767;28;20246;-67
2022/07/20 13:36:59;;;;;;;5.43;4.07;;;;;;;;;;4976225;28;20235;-66
2022/07/20 13:39:25;;;;;;;6.17;4.30;;;;;;;;;;4965490;28;20217;-67
2022/07/20 13:41:53;;;;;;;7.57;4.00;;;;;;;;;;5002019;28;20230;-67
2022/07/20 13:44:20;;;;;;;5.30;4.10;;;;;;;;;;4962777;28;20695;-67
2022/07/20 13:46:47;;;;;;;7.50;4.30;;;;;;;;;;4990468;28;20302;-67
2022/07/20 13:49:14;;;;;;;6.03;4.20;;;;;;;;;;4999999;28;20231;-67
2022/07/20 13:51:41;;;;;;;6.43;4.10;;;;;;;;;;4997796;28;20298;-67
2022/07/20 13:54:28;;;;;;;7.33;4.23;;;;;;;;;;4998352;28;20235;-67
2022/07/20 13:56:55;;;;;;;6.67;4.00;;;;;;;;;;4996927;28;32832;-67
2022/07/20 13:59:22;;;;;;;4.77;3.80;;;;;;;;;;4984737;28;20241;-67
2022/07/20 14:01:50;;;;;;;6.30;4.17;;;;;;;;;;4999724;28;20233;-67
2022/07/20 14:04:17;;;;;;;4.60;3.60;;;;;;;;;;4998518;28;20242;-67
2022/07/20 14:06:44;;;;;;;6.13;4.00;;;;;;;;;;5000739;28;20234;-67
2022/07/20 14:09:10;;;;;;;6.33;3.70;;;;;;;;;;4983331;28;20293;-67
2022/07/20 14:11:38;;;;;;;6.37;4.00;;;;;;;;;;5000430;28;20235;-67
2022/07/20 14:14:06;;;;;;;6.23;4.57;;;;;;;;;;4998784;28;20245;-67
2022/07/20 14:16:33;;;;;;;6.80;4.00;;;;;;;;;;4990837;28;20654;-67
2022/07/20 14:19:00;;;;;;;5.47;3.87;;;;;;;;;;4972586;28;20257;-68
2022/07/20 14:21:27;;;;;;;7.83;3.97;;;;;;;;;;5001517;28;20333;-67
2022/07/20 14:23:56;;;;;;;6.07;3.77;;;;;;;;;;4996077;28;20258;-68
2022/07/20 14:26:23;;;;;;;5.53;3.20;;;;;;;;;;5000867;28;20251;-68
2022/07/20 14:28:49;;;;;;;6.70;3.80;;;;;;;;;;4985646;28;20273;-68
2022/07/20 14:31:17;;;;;;;4.87;3.00;;;;;;;;;;5004012;28;20256;-67
2022/07/20 14:33:44;;;;;;;5.37;3.70;;;;;;;;;;5001644;28;20227;-68
2022/07/20 14:36:10;;;;;;;6.07;3.43;;;;;;;;;;5004743;28;20226;-67
2022/07/20 14:38:37;;;;;;;4.60;3.67;;;;;;;;;;5003474;28;20248;-67
2022/07/20 14:41:05;;;;;;;3.73;3.30;;;;;;;;;;5005142;28;20233;-67
2022/07/20 14:43:36;;;;;;;5.57;3.70;;;;;;;;;;5002521;28;20352;-68
2022/07/20 14:46:03;;;;;;;6.77;3.70;;;;;;;;;;5004132;28;20280;-68
2022/07/20 14:48:30;;;;;;;5.83;3.50;;;;;;;;;;4969003;28;20238;-68
2022/07/20 14:50:56;;;;;;;5.27;3.43;;;;;;;;;;5008301;28;20693;-68